EGV19J EGCC-EGKK
Flight info
| Callsign | EGV19J |
|---|---|
| Flight time | 0h 30m |
| Altitude | 19000 |
| Route | LISTO L612 HON N859 KIDLI |
| Aircraft | A320/M-SDE3FGHIRWY/LB1 |
Departure
| Time | 2026-05-06 13:54 |
|---|---|
| Airport | Manchester Airport (EGCC) |
Arrival
| Time | 2026-05-06 14:24 |
|---|---|
| Airport | London Gatwick Airport (EGKK) |
| Time | Latitude | Longitude | Altitude | Speed | Heading |
|---|---|---|---|---|---|
| 2026-05-06 13:32 | 53.36089 | -2.26796 | 255 ft | 0 kts | 313° |
| 2026-05-06 13:45 | 53.36074 | -2.26770 | 255 ft | 4 kts | 313° |
| 2026-05-06 13:45 | 53.36055 | -2.26704 | 255 ft | 4 kts | 254° |
| 2026-05-06 13:45 | 53.36065 | -2.26667 | 255 ft | 4 kts | 240° |
| 2026-05-06 13:46 | 53.36070 | -2.26651 | 255 ft | 0 kts | 240° |
| 2026-05-06 13:49 | 53.36070 | -2.26652 | 255 ft | 2 kts | 240° |
| 2026-05-06 13:50 | 53.36035 | -2.26731 | 255 ft | 12 kts | 231° |
| 2026-05-06 13:50 | 53.35985 | -2.26827 | 255 ft | 11 kts | 217° |
| 2026-05-06 13:50 | 53.35901 | -2.26848 | 256 ft | 13 kts | 207° |
| 2026-05-06 13:50 | 53.35837 | -2.26981 | 256 ft | 19 kts | 238° |
| 2026-05-06 13:51 | 53.35743 | -2.27201 | 255 ft | 28 kts | 230° |
| 2026-05-06 13:51 | 53.35613 | -2.27468 | 245 ft | 32 kts | 231° |
| 2026-05-06 13:51 | 53.35479 | -2.27745 | 239 ft | 21 kts | 232° |
| 2026-05-06 13:51 | 53.35432 | -2.27971 | 237 ft | 22 kts | 220° |
| 2026-05-06 13:52 | 53.35314 | -2.28149 | 236 ft | 24 kts | 225° |
| 2026-05-06 13:52 | 53.35197 | -2.28371 | 230 ft | 27 kts | 230° |
| 2026-05-06 13:52 | 53.35073 | -2.28629 | 229 ft | 28 kts | 231° |
| 2026-05-06 13:52 | 53.34934 | -2.28882 | 226 ft | 30 kts | 226° |
| 2026-05-06 13:53 | 53.34781 | -2.29157 | 221 ft | 34 kts | 231° |
| 2026-05-06 13:53 | 53.34616 | -2.29336 | 213 ft | 28 kts | 175° |
| 2026-05-06 13:53 | 53.34572 | -2.29155 | 219 ft | 21 kts | 52° |
| 2026-05-06 13:53 | 53.34686 | -2.28920 | 220 ft | 43 kts | 51° |
| 2026-05-06 13:54 | 53.35027 | -2.28216 | 232 ft | 110 kts | 51° |
| 2026-05-06 13:54 | 53.35622 | -2.26988 | 262 ft | 159 kts | 51° |
| 2026-05-06 13:54 | 53.36335 | -2.25520 | 818 ft | 163 kts | 51° |
| 2026-05-06 13:54 | 53.37045 | -2.24032 | 1640 ft | 163 kts | 52° |
| 2026-05-06 13:55 | 53.37559 | -2.22353 | 2307 ft | 169 kts | 79° |
| 2026-05-06 13:55 | 53.37447 | -2.20314 | 2660 ft | 192 kts | 111° |
| 2026-05-06 13:55 | 53.36487 | -2.18531 | 3002 ft | 221 kts | 145° |
| 2026-05-06 13:55 | 53.35084 | -2.17167 | 3437 ft | 246 kts | 157° |
| 2026-05-06 13:56 | 53.33332 | -2.16823 | 4062 ft | 263 kts | 185° |
| 2026-05-06 13:56 | 53.32115 | -2.17043 | 4642 ft | 267 kts | 184° |
| 2026-05-06 13:56 | 53.30260 | -2.17369 | 5531 ft | 271 kts | 185° |
| 2026-05-06 13:56 | 53.28349 | -2.17688 | 6380 ft | 278 kts | 186° |
| 2026-05-06 13:57 | 53.25769 | -2.18104 | 7460 ft | 284 kts | 186° |
| 2026-05-06 13:57 | 53.23783 | -2.18419 | 8318 ft | 288 kts | 186° |
| 2026-05-06 13:57 | 53.21780 | -2.18736 | 9190 ft | 291 kts | 186° |
| 2026-05-06 13:57 | 53.19752 | -2.19055 | 10050 ft | 294 kts | 186° |
| 2026-05-06 13:58 | 53.18354 | -2.19274 | 10404 ft | 305 kts | 186° |
| 2026-05-06 13:58 | 53.15402 | -2.19410 | 10724 ft | 337 kts | 176° |
| 2026-05-06 13:58 | 53.13829 | -2.19063 | 10855 ft | 353 kts | 169° |
| 2026-05-06 13:58 | 53.10601 | -2.17325 | 11262 ft | 375 kts | 157° |
| 2026-05-06 13:59 | 53.09000 | -2.16197 | 11683 ft | 379 kts | 158° |
| 2026-05-06 13:59 | 53.06551 | -2.14496 | 12366 ft | 383 kts | 158° |
| 2026-05-06 13:59 | 53.04070 | -2.12788 | 13052 ft | 387 kts | 158° |
| 2026-05-06 13:59 | 53.01572 | -2.11075 | 13730 ft | 391 kts | 159° |
| 2026-05-06 14:00 | 52.99036 | -2.09334 | 14335 ft | 395 kts | 159° |
| 2026-05-06 14:00 | 52.96483 | -2.07580 | 14913 ft | 399 kts | 159° |
| 2026-05-06 14:00 | 52.93913 | -2.05812 | 15501 ft | 402 kts | 159° |
| 2026-05-06 14:00 | 52.91321 | -2.04030 | 16080 ft | 405 kts | 159° |
| 2026-05-06 14:01 | 52.88710 | -2.02240 | 16644 ft | 408 kts | 159° |
| 2026-05-06 14:01 | 52.86077 | -2.00443 | 17221 ft | 411 kts | 159° |
| 2026-05-06 14:01 | 52.83457 | -1.98658 | 17780 ft | 414 kts | 159° |
| 2026-05-06 14:01 | 52.80788 | -1.96834 | 18340 ft | 417 kts | 159° |
| 2026-05-06 14:02 | 52.78100 | -1.94998 | 18802 ft | 419 kts | 159° |
| 2026-05-06 14:02 | 52.75406 | -1.93161 | 18993 ft | 420 kts | 159° |
| 2026-05-06 14:02 | 52.72667 | -1.91297 | 19044 ft | 433 kts | 159° |
| 2026-05-06 14:02 | 52.69833 | -1.89374 | 19038 ft | 445 kts | 159° |
| 2026-05-06 14:03 | 52.66963 | -1.87430 | 19040 ft | 449 kts | 159° |
| 2026-05-06 14:03 | 52.64095 | -1.85488 | 19032 ft | 450 kts | 159° |
| 2026-05-06 14:03 | 52.61155 | -1.83493 | 19034 ft | 451 kts | 159° |
| 2026-05-06 14:03 | 52.58293 | -1.81552 | 19031 ft | 451 kts | 159° |
| 2026-05-06 14:04 | 52.55401 | -1.79599 | 19024 ft | 451 kts | 159° |
| 2026-05-06 14:04 | 52.52499 | -1.77651 | 19024 ft | 450 kts | 159° |
| 2026-05-06 14:04 | 52.49489 | -1.75636 | 19024 ft | 450 kts | 159° |
| 2026-05-06 14:04 | 52.46722 | -1.73780 | 19026 ft | 451 kts | 159° |
| 2026-05-06 14:05 | 52.43800 | -1.71817 | 19019 ft | 450 kts | 159° |
| 2026-05-06 14:05 | 52.40903 | -1.69845 | 19021 ft | 450 kts | 158° |
| 2026-05-06 14:05 | 52.38056 | -1.67894 | 19019 ft | 450 kts | 159° |
| 2026-05-06 14:05 | 52.35099 | -1.66009 | 19006 ft | 450 kts | 161° |
| 2026-05-06 14:06 | 52.32145 | -1.64310 | 19001 ft | 449 kts | 163° |
| 2026-05-06 14:06 | 52.29227 | -1.62775 | 19021 ft | 449 kts | 164° |
| 2026-05-06 14:06 | 52.26229 | -1.61278 | 18991 ft | 449 kts | 165° |
| 2026-05-06 14:06 | 52.23245 | -1.59811 | 19002 ft | 449 kts | 165° |
| 2026-05-06 14:07 | 52.20250 | -1.58329 | 19011 ft | 449 kts | 165° |
| 2026-05-06 14:07 | 52.17265 | -1.56823 | 19009 ft | 449 kts | 164° |
| 2026-05-06 14:07 | 52.14303 | -1.55289 | 19012 ft | 436 kts | 164° |
| 2026-05-06 14:07 | 52.11411 | -1.53775 | 19026 ft | 444 kts | 163° |
| 2026-05-06 14:08 | 52.08458 | -1.52233 | 19021 ft | 448 kts | 163° |
| 2026-05-06 14:08 | 52.05467 | -1.50675 | 18790 ft | 449 kts | 163° |
| 2026-05-06 14:08 | 52.02539 | -1.49156 | 18525 ft | 448 kts | 164° |
| 2026-05-06 14:08 | 51.99574 | -1.47626 | 18293 ft | 447 kts | 164° |
| 2026-05-06 14:09 | 51.96612 | -1.46104 | 18029 ft | 445 kts | 164° |
| 2026-05-06 14:09 | 51.93672 | -1.44593 | 17754 ft | 443 kts | 164° |
| 2026-05-06 14:09 | 51.90734 | -1.43082 | 17487 ft | 441 kts | 163° |
| 2026-05-06 14:09 | 51.87819 | -1.41589 | 17221 ft | 440 kts | 164° |
| 2026-05-06 14:10 | 51.84901 | -1.40100 | 16923 ft | 437 kts | 164° |
| 2026-05-06 14:10 | 51.82015 | -1.38629 | 16182 ft | 433 kts | 163° |
| 2026-05-06 14:10 | 51.79155 | -1.37162 | 15467 ft | 429 kts | 162° |
| 2026-05-06 14:10 | 51.76426 | -1.35265 | 14812 ft | 427 kts | 153° |
| 2026-05-06 14:11 | 51.73901 | -1.32720 | 14556 ft | 428 kts | 147° |
| 2026-05-06 14:11 | 51.71440 | -1.30126 | 14314 ft | 428 kts | 148° |
| 2026-05-06 14:11 | 51.68940 | -1.27522 | 14072 ft | 427 kts | 148° |
| 2026-05-06 14:11 | 51.66447 | -1.24945 | 13830 ft | 427 kts | 148° |
| 2026-05-06 14:12 | 51.63944 | -1.22365 | 13567 ft | 426 kts | 148° |
| 2026-05-06 14:12 | 51.61457 | -1.19799 | 13297 ft | 425 kts | 148° |
| 2026-05-06 14:12 | 51.58971 | -1.17232 | 13025 ft | 423 kts | 148° |
| 2026-05-06 14:12 | 51.56504 | -1.14679 | 12747 ft | 422 kts | 148° |
| 2026-05-06 14:13 | 51.54060 | -1.12149 | 12510 ft | 420 kts | 148° |
| 2026-05-06 14:13 | 51.51586 | -1.09594 | 12241 ft | 419 kts | 148° |
| 2026-05-06 14:13 | 51.49143 | -1.07078 | 11974 ft | 417 kts | 148° |
| 2026-05-06 14:13 | 51.46702 | -1.04567 | 11719 ft | 413 kts | 148° |
| 2026-05-06 14:14 | 51.44300 | -1.02094 | 11465 ft | 410 kts | 147° |
| 2026-05-06 14:14 | 51.41906 | -0.99631 | 11209 ft | 409 kts | 148° |
| 2026-05-06 14:14 | 51.39540 | -0.97202 | 10955 ft | 407 kts | 148° |
| 2026-05-06 14:14 | 51.37163 | -0.94764 | 10716 ft | 407 kts | 147° |
| 2026-05-06 14:15 | 51.34764 | -0.92308 | 10451 ft | 406 kts | 147° |
| 2026-05-06 14:15 | 51.32397 | -0.89886 | 10222 ft | 404 kts | 147° |
| 2026-05-06 14:15 | 51.30036 | -0.87475 | 9982 ft | 398 kts | 147° |
| 2026-05-06 14:15 | 51.27756 | -0.85150 | 9838 ft | 380 kts | 147° |
| 2026-05-06 14:16 | 51.25579 | -0.82936 | 9718 ft | 362 kts | 147° |
| 2026-05-06 14:16 | 51.23508 | -0.80833 | 9558 ft | 347 kts | 147° |
| 2026-05-06 14:16 | 51.21506 | -0.78803 | 9436 ft | 333 kts | 147° |
| 2026-05-06 14:16 | 51.19580 | -0.76855 | 9304 ft | 321 kts | 147° |
| 2026-05-06 14:17 | 51.17752 | -0.75006 | 9158 ft | 310 kts | 147° |
| 2026-05-06 14:17 | 51.15963 | -0.73195 | 9037 ft | 301 kts | 147° |
| 2026-05-06 14:17 | 51.14215 | -0.71420 | 8540 ft | 296 kts | 147° |
| 2026-05-06 14:17 | 51.12488 | -0.69666 | 7902 ft | 293 kts | 147° |
| 2026-05-06 14:18 | 51.10774 | -0.67931 | 7296 ft | 291 kts | 147° |
| 2026-05-06 14:18 | 51.09071 | -0.66212 | 6683 ft | 288 kts | 147° |
| 2026-05-06 14:18 | 51.07502 | -0.64304 | 6048 ft | 284 kts | 130° |
| 2026-05-06 14:18 | 51.06536 | -0.61828 | 5769 ft | 264 kts | 109° |
| 2026-05-06 14:19 | 51.06155 | -0.59009 | 4997 ft | 263 kts | 86° |
| 2026-05-06 14:19 | 51.06478 | -0.56199 | 4331 ft | 255 kts | 62° |
| 2026-05-06 14:19 | 51.07527 | -0.54063 | 4020 ft | 245 kts | 44° |
| 2026-05-06 14:19 | 51.08680 | -0.52096 | 3894 ft | 233 kts | 44° |
| 2026-05-06 14:20 | 51.09754 | -0.50245 | 3725 ft | 224 kts | 46° |
| 2026-05-06 14:20 | 51.10597 | -0.48220 | 3487 ft | 223 kts | 64° |
| 2026-05-06 14:20 | 51.11056 | -0.45915 | 3365 ft | 216 kts | 73° |
| 2026-05-06 14:20 | 51.11395 | -0.43586 | 3134 ft | 215 kts | 74° |
| 2026-05-06 14:21 | 51.11719 | -0.41259 | 2856 ft | 217 kts | 74° |
| 2026-05-06 14:21 | 51.12050 | -0.38895 | 2556 ft | 219 kts | 73° |
| 2026-05-06 14:21 | 51.12374 | -0.36567 | 2263 ft | 212 kts | 75° |
| 2026-05-06 14:21 | 51.12685 | -0.34341 | 1995 ft | 199 kts | 74° |
| 2026-05-06 14:22 | 51.12971 | -0.32284 | 1724 ft | 180 kts | 73° |
| 2026-05-06 14:22 | 51.13230 | -0.30423 | 1499 ft | 164 kts | 71° |
| 2026-05-06 14:22 | 51.13463 | -0.28741 | 1275 ft | 149 kts | 73° |
| 2026-05-06 14:22 | 51.13676 | -0.27188 | 1031 ft | 141 kts | 75° |
| 2026-05-06 14:23 | 51.13899 | -0.25706 | 826 ft | 136 kts | 72° |
| 2026-05-06 14:23 | 51.14083 | -0.24251 | 691 ft | 134 kts | 77° |
| 2026-05-06 14:23 | 51.14297 | -0.22804 | 514 ft | 134 kts | 73° |
| 2026-05-06 14:23 | 51.14495 | -0.21383 | 336 ft | 136 kts | 77° |
| 2026-05-06 14:24 | 51.14692 | -0.19932 | 224 ft | 133 kts | 77° |
| 2026-05-06 14:24 | 51.14866 | -0.18668 | 202 ft | 93 kts | 77° |
| 2026-05-06 14:24 | 51.14969 | -0.17922 | 209 ft | 50 kts | 77° |
| 2026-05-06 14:24 | 51.15025 | -0.17520 | 208 ft | 28 kts | 78° |
| 2026-05-06 14:25 | 51.15094 | -0.17269 | 208 ft | 16 kts | 54° |
| 2026-05-06 14:25 | 51.15109 | -0.17236 | 216 ft | 0 kts | 54° |
| 2026-05-06 14:27 | 51.15113 | -0.17229 | 216 ft | 4 kts | 53° |
| 2026-05-06 14:27 | 51.15148 | -0.17210 | 208 ft | 7 kts | 356° |
| 2026-05-06 14:27 | 51.15205 | -0.17267 | 206 ft | 10 kts | 324° |
| 2026-05-06 14:28 | 51.15275 | -0.17342 | 213 ft | 16 kts | 333° |
| 2026-05-06 14:28 | 51.15390 | -0.17382 | 213 ft | 18 kts | 348° |
| 2026-05-06 14:28 | 51.15518 | -0.17426 | 204 ft | 20 kts | 347° |
| 2026-05-06 14:28 | 51.15656 | -0.17475 | 209 ft | 21 kts | 348° |
| 2026-05-06 14:29 | 51.15754 | -0.17560 | 209 ft | 7 kts | 264° |
| 2026-05-06 14:29 | 51.15735 | -0.17703 | 210 ft | 22 kts | 257° |
| 2026-05-06 14:29 | 51.15700 | -0.17951 | 208 ft | 23 kts | 259° |
| 2026-05-06 14:29 | 51.15766 | -0.18056 | 208 ft | 14 kts | 344° |
| 2026-05-06 14:30 | 51.15805 | -0.18009 | 209 ft | 2 kts | 96° |
| 2026-05-06 14:30 | 51.15814 | -0.17965 | 206 ft | 4 kts | 77° |
| 2026-05-06 14:30 | 51.15817 | -0.17942 | 204 ft | 0 kts | 78° |
| 2026-05-06 14:30 | 51.15817 | -0.17940 | 204 ft | 0 kts | 78° |